sensor_id;sensor_type;location;lat;lon;timestamp;P1;durP1;ratioP1;P2;durP2;ratioP2
60436;SDS011;46289;51.992;4.498;2023-04-03T00:01:57;3.03;;;1.70;;
60436;SDS011;46289;51.992;4.498;2023-04-03T00:04:02;4.40;;;2.13;;
60436;SDS011;46289;51.992;4.498;2023-04-03T00:06:10;4.28;;;1.90;;
60436;SDS011;46289;51.992;4.498;2023-04-03T00:08:15;3.55;;;2.00;;
60436;SDS011;46289;51.992;4.498;2023-04-03T00:10:22;5.47;;;2.17;;
60436;SDS011;46289;51.992;4.498;2023-04-03T00:12:27;3.35;;;2.15;;
60436;SDS011;46289;51.992;4.498;2023-04-03T00:14:32;5.88;;;2.60;;
60436;SDS011;46289;51.992;4.498;2023-04-03T00:16:38;5.13;;;1.95;;
60436;SDS011;46289;51.992;4.498;2023-04-03T00:18:46;3.10;;;1.92;;
60436;SDS011;46289;51.992;4.498;2023-04-03T00:20:51;4.82;;;2.15;;
60436;SDS011;46289;51.992;4.498;2023-04-03T00:22:56;6.68;;;2.08;;
60436;SDS011;46289;51.992;4.498;2023-04-03T00:25:01;5.40;;;2.20;;
60436;SDS011;46289;51.992;4.498;2023-04-03T00:27:06;2.45;;;1.70;;
60436;SDS011;46289;51.992;4.498;2023-04-03T00:29:15;4.40;;;1.85;;
60436;SDS011;46289;51.992;4.498;2023-04-03T00:31:19;2.22;;;1.70;;
60436;SDS011;46289;51.992;4.498;2023-04-03T00:33:24;2.22;;;1.70;;
60436;SDS011;46289;51.992;4.498;2023-04-03T00:35:33;2.47;;;1.60;;
60436;SDS011;46289;51.992;4.498;2023-04-03T00:37:40;5.78;;;2.25;;
60436;SDS011;46289;51.992;4.498;2023-04-03T00:39:45;3.33;;;2.05;;
60436;SDS011;46289;51.992;4.498;2023-04-03T00:41:50;4.25;;;2.17;;
60436;SDS011;46289;51.992;4.498;2023-04-03T00:43:55;3.28;;;2.05;;
60436;SDS011;46289;51.992;4.498;2023-04-03T00:46:00;5.35;;;2.15;;
60436;SDS011;46289;51.992;4.498;2023-04-03T00:48:09;4.35;;;2.00;;
60436;SDS011;46289;51.992;4.498;2023-04-03T00:50:18;4.55;;;2.03;;
60436;SDS011;46289;51.992;4.498;2023-04-03T00:52:28;4.72;;;2.30;;
60436;SDS011;46289;51.992;4.498;2023-04-03T00:54:36;3.30;;;1.90;;
60436;SDS011;46289;51.992;4.498;2023-04-03T00:56:42;4.20;;;1.98;;
60436;SDS011;46289;51.992;4.498;2023-04-03T00:58:51;2.17;;;1.95;;
60436;SDS011;46289;51.992;4.498;2023-04-03T01:01:04;3.67;;;1.95;;
60436;SDS011;46289;51.992;4.498;2023-04-03T01:03:15;5.80;;;2.42;;
60436;SDS011;46289;51.992;4.498;2023-04-03T01:05:20;4.57;;;1.85;;
60436;SDS011;46289;51.992;4.498;2023-04-03T01:07:29;3.75;;;1.95;;
60436;SDS011;46289;51.992;4.498;2023-04-03T01:09:37;4.57;;;2.10;;
60436;SDS011;46289;51.992;4.498;2023-04-03T01:11:43;5.07;;;2.83;;
60436;SDS011;46289;51.992;4.498;2023-04-03T01:13:48;2.65;;;1.90;;
60436;SDS011;46289;51.992;4.498;2023-04-03T01:15:53;3.00;;;1.80;;
60436;SDS011;46289;51.992;4.498;2023-04-03T01:17:59;2.42;;;1.90;;
60436;SDS011;46289;51.992;4.498;2023-04-03T01:22:53;3.72;;;2.13;;
60436;SDS011;46289;51.992;4.498;2023-04-03T01:25:04;3.90;;;2.08;;
60436;SDS011;46289;51.992;4.498;2023-04-03T01:27:10;3.85;;;2.30;;
60436;SDS011;46289;51.992;4.498;2023-04-03T01:29:15;6.03;;;2.25;;
60436;SDS011;46289;51.992;4.498;2023-04-03T01:31:22;3.80;;;1.88;;
60436;SDS011;46289;51.992;4.498;2023-04-03T01:33:33;5.45;;;2.20;;
60436;SDS011;46289;51.992;4.498;2023-04-03T01:35:41;4.93;;;2.00;;
60436;SDS011;46289;51.992;4.498;2023-04-03T01:37:49;3.70;;;2.22;;
60436;SDS011;46289;51.992;4.498;2023-04-03T01:39:53;3.88;;;1.92;;
60436;SDS011;46289;51.992;4.498;2023-04-03T01:41:58;3.72;;;2.00;;
60436;SDS011;46289;51.992;4.498;2023-04-03T01:44:03;4.82;;;2.28;;
60436;SDS011;46289;51.992;4.498;2023-04-03T01:46:09;4.35;;;1.90;;
60436;SDS011;46289;51.992;4.498;2023-04-03T01:48:15;4.38;;;1.90;;
60436;SDS011;46289;51.992;4.498;2023-04-03T01:50:23;2.70;;;2.03;;
60436;SDS011;46289;51.992;4.498;2023-04-03T01:52:28;4.22;;;2.10;;
60436;SDS011;46289;51.992;4.498;2023-04-03T01:54:33;3.72;;;2.00;;
60436;SDS011;46289;51.992;4.498;2023-04-03T01:56:41;4.38;;;2.30;;
60436;SDS011;46289;51.992;4.498;2023-04-03T01:58:47;4.10;;;2.00;;
60436;SDS011;46289;51.992;4.498;2023-04-03T02:00:52;3.67;;;1.75;;
60436;SDS011;46289;51.992;4.498;2023-04-03T02:02:57;2.97;;;1.88;;
60436;SDS011;46289;51.992;4.498;2023-04-03T02:05:02;3.47;;;2.10;;
60436;SDS011;46289;51.992;4.498;2023-04-03T02:07:13;3.05;;;1.75;;
60436;SDS011;46289;51.992;4.498;2023-04-03T02:09:18;5.15;;;1.95;;
60436;SDS011;46289;51.992;4.498;2023-04-03T02:11:23;3.70;;;1.80;;
60436;SDS011;46289;51.992;4.498;2023-04-03T02:13:28;3.78;;;2.00;;
60436;SDS011;46289;51.992;4.498;2023-04-03T02:15:32;2.60;;;1.88;;
60436;SDS011;46289;51.992;4.498;2023-04-03T02:17:37;3.65;;;1.90;;
60436;SDS011;46289;51.992;4.498;2023-04-03T02:19:44;3.63;;;2.10;;
60436;SDS011;46289;51.992;4.498;2023-04-03T02:21:49;5.90;;;2.17;;
60436;SDS011;46289;51.992;4.498;2023-04-03T02:23:57;3.83;;;2.00;;
60436;SDS011;46289;51.992;4.498;2023-04-03T02:26:02;3.92;;;2.25;;
60436;SDS011;46289;51.992;4.498;2023-04-03T02:28:10;4.03;;;2.03;;
60436;SDS011;46289;51.992;4.498;2023-04-03T02:30:15;3.88;;;1.80;;
60436;SDS011;46289;51.992;4.498;2023-04-03T02:32:20;2.83;;;1.90;;
60436;SDS011;46289;51.992;4.498;2023-04-03T02:34:25;5.22;;;2.35;;
60436;SDS011;46289;51.992;4.498;2023-04-03T02:36:30;5.30;;;2.22;;
60436;SDS011;46289;51.992;4.498;2023-04-03T02:38:34;4.18;;;2.08;;
60436;SDS011;46289;51.992;4.498;2023-04-03T02:40:45;4.22;;;2.00;;
60436;SDS011;46289;51.992;4.498;2023-04-03T02:42:50;5.78;;;2.80;;
60436;SDS011;46289;51.992;4.498;2023-04-03T02:44:55;3.28;;;2.00;;
60436;SDS011;46289;51.992;4.498;2023-04-03T02:47:01;3.80;;;1.92;;
60436;SDS011;46289;51.992;4.498;2023-04-03T02:49:06;3.35;;;1.95;;
60436;SDS011;46289;51.992;4.498;2023-04-03T02:51:14;4.32;;;2.05;;
60436;SDS011;46289;51.992;4.498;2023-04-03T02:53:19;3.15;;;2.20;;
60436;SDS011;46289;51.992;4.498;2023-04-03T02:55:24;3.47;;;2.00;;
60436;SDS011;46289;51.992;4.498;2023-04-03T02:57:32;4.57;;;2.42;;
60436;SDS011;46289;51.992;4.498;2023-04-03T02:59:37;4.85;;;2.10;;
60436;SDS011;46289;51.992;4.498;2023-04-03T03:01:42;3.55;;;2.10;;
60436;SDS011;46289;51.992;4.498;2023-04-03T03:03:47;5.45;;;2.45;;
60436;SDS011;46289;51.992;4.498;2023-04-03T03:06:00;4.13;;;2.03;;
60436;SDS011;46289;51.992;4.498;2023-04-03T03:08:06;3.38;;;2.10;;
60436;SDS011;46289;51.992;4.498;2023-04-03T03:10:11;3.92;;;2.10;;
60436;SDS011;46289;51.992;4.498;2023-04-03T03:12:16;5.38;;;2.83;;
60436;SDS011;46289;51.992;4.498;2023-04-03T03:14:25;5.00;;;2.45;;
60436;SDS011;46289;51.992;4.498;2023-04-03T03:16:31;4.35;;;2.45;;
60436;SDS011;46289;51.992;4.498;2023-04-03T03:18:36;3.55;;;2.15;;
60436;SDS011;46289;51.992;4.498;2023-04-03T03:20:40;4.95;;;2.45;;
60436;SDS011;46289;51.992;4.498;2023-04-03T03:22:46;6.10;;;2.67;;
60436;SDS011;46289;51.992;4.498;2023-04-03T03:24:51;3.67;;;2.05;;
60436;SDS011;46289;51.992;4.498;2023-04-03T03:26:56;3.83;;;2.20;;
60436;SDS011;46289;51.992;4.498;2023-04-03T03:29:01;2.35;;;2.00;;
60436;SDS011;46289;51.992;4.498;2023-04-03T03:31:09;4.55;;;2.45;;
60436;SDS011;46289;51.992;4.498;2023-04-03T03:33:14;3.78;;;2.58;;
60436;SDS011;46289;51.992;4.498;2023-04-03T03:35:17;4.63;;;2.03;;
60436;SDS011;46289;51.992;4.498;2023-04-03T03:37:22;5.18;;;2.40;;
60436;SDS011;46289;51.992;4.498;2023-04-03T03:39:36;4.68;;;2.40;;
60436;SDS011;46289;51.992;4.498;2023-04-03T03:43:01;3.10;;;2.00;;
60436;SDS011;46289;51.992;4.498;2023-04-03T03:45:40;3.47;;;2.40;;
60436;SDS011;46289;51.992;4.498;2023-04-03T03:57:43;7.45;;;2.20;;
60436;SDS011;46289;51.992;4.498;2023-04-03T04:00:33;3.40;;;2.40;;
60436;SDS011;46289;51.992;4.498;2023-04-03T04:03:09;3.17;;;2.25;;
60436;SDS011;46289;51.992;4.498;2023-04-03T04:05:51;4.93;;;2.47;;
60436;SDS011;46289;51.992;4.498;2023-04-03T04:09:04;3.50;;;2.72;;
60436;SDS011;46289;51.992;4.498;2023-04-03T04:24:23;4.45;;;3.00;;
60436;SDS011;46289;51.992;4.498;2023-04-03T04:27:29;4.55;;;2.47;;
60436;SDS011;46289;51.992;4.498;2023-04-03T04:33:17;5.18;;;2.83;;
60436;SDS011;46289;51.992;4.498;2023-04-03T04:36:10;3.60;;;2.10;;
60436;SDS011;46289;51.992;4.498;2023-04-03T04:39:01;3.55;;;2.45;;
60436;SDS011;46289;51.992;4.498;2023-04-03T04:45:15;4.15;;;2.28;;
60436;SDS011;46289;51.992;4.498;2023-04-03T04:47:59;3.83;;;2.38;;
60436;SDS011;46289;51.992;4.498;2023-04-03T04:50:24;5.88;;;2.63;;
60436;SDS011;46289;51.992;4.498;2023-04-03T04:56:50;4.18;;;2.40;;
60436;SDS011;46289;51.992;4.498;2023-04-03T04:59:16;4.20;;;2.20;;
60436;SDS011;46289;51.992;4.498;2023-04-03T05:01:43;4.18;;;2.95;;
60436;SDS011;46289;51.992;4.498;2023-04-03T05:04:25;4.47;;;2.15;;
60436;SDS011;46289;51.992;4.498;2023-04-03T05:15:48;6.38;;;2.70;;
60436;SDS011;46289;51.992;4.498;2023-04-03T05:18:23;4.78;;;3.08;;
60436;SDS011;46289;51.992;4.498;2023-04-03T05:21:09;8.55;;;2.95;;
60436;SDS011;46289;51.992;4.498;2023-04-03T05:23:49;4.05;;;2.30;;
60436;SDS011;46289;51.992;4.498;2023-04-03T05:29:22;5.93;;;2.90;;
60436;SDS011;46289;51.992;4.498;2023-04-03T05:31:45;4.30;;;2.63;;
60436;SDS011;46289;51.992;4.498;2023-04-03T05:35:15;3.35;;;2.40;;
60436;SDS011;46289;51.992;4.498;2023-04-03T05:38:05;6.95;;;3.00;;
60436;SDS011;46289;51.992;4.498;2023-04-03T05:41:06;5.90;;;3.38;;
60436;SDS011;46289;51.992;4.498;2023-04-03T05:43:56;6.65;;;2.92;;
60436;SDS011;46289;51.992;4.498;2023-04-03T05:46:39;5.53;;;3.58;;
60436;SDS011;46289;51.992;4.498;2023-04-03T05:49:20;5.13;;;3.05;;
60436;SDS011;46289;51.992;4.498;2023-04-03T05:52:10;5.80;;;3.10;;
60436;SDS011;46289;51.992;4.498;2023-04-03T05:54:48;6.53;;;3.53;;
60436;SDS011;46289;51.992;4.498;2023-04-03T05:57:27;3.08;;;2.30;;
60436;SDS011;46289;51.992;4.498;2023-04-03T06:00:29;7.35;;;3.58;;
60436;SDS011;46289;51.992;4.498;2023-04-03T06:03:34;5.82;;;3.20;;
60436;SDS011;46289;51.992;4.498;2023-04-03T06:06:10;7.72;;;3.55;;
60436;SDS011;46289;51.992;4.498;2023-04-03T06:09:26;5.63;;;3.13;;
60436;SDS011;46289;51.992;4.498;2023-04-03T06:15:34;6.30;;;3.35;;
60436;SDS011;46289;51.992;4.498;2023-04-03T06:18:31;9.07;;;4.53;;
60436;SDS011;46289;51.992;4.498;2023-04-03T06:21:21;7.13;;;3.25;;
60436;SDS011;46289;51.992;4.498;2023-04-03T06:24:03;5.18;;;3.08;;
60436;SDS011;46289;51.992;4.498;2023-04-03T06:27:04;6.20;;;3.40;;
60436;SDS011;46289;51.992;4.498;2023-04-03T06:33:05;7.10;;;3.30;;
60436;SDS011;46289;51.992;4.498;2023-04-03T06:36:09;7.28;;;3.97;;
60436;SDS011;46289;51.992;4.498;2023-04-03T06:39:18;13.27;;;3.28;;
60436;SDS011;46289;51.992;4.498;2023-04-03T06:45:32;4.68;;;3.00;;
60436;SDS011;46289;51.992;4.498;2023-04-03T06:48:36;8.68;;;3.53;;
60436;SDS011;46289;51.992;4.498;2023-04-03T06:51:49;4.78;;;3.00;;
60436;SDS011;46289;51.992;4.498;2023-04-03T06:54:40;6.60;;;3.60;;
60436;SDS011;46289;51.992;4.498;2023-04-03T06:57:28;9.98;;;3.30;;
60436;SDS011;46289;51.992;4.498;2023-04-03T07:00:13;4.68;;;2.83;;
60436;SDS011;46289;51.992;4.498;2023-04-03T07:03:12;7.80;;;3.03;;
60436;SDS011;46289;51.992;4.498;2023-04-03T07:06:34;10.07;;;3.53;;
60436;SDS011;46289;51.992;4.498;2023-04-03T07:12:22;8.77;;;3.38;;
60436;SDS011;46289;51.992;4.498;2023-04-03T07:21:18;7.63;;;3.10;;
60436;SDS011;46289;51.992;4.498;2023-04-03T07:25:00;4.22;;;2.20;;
60436;SDS011;46289;51.992;4.498;2023-04-03T07:30:33;6.22;;;2.80;;
60436;SDS011;46289;51.992;4.498;2023-04-03T07:33:06;12.00;;;3.10;;
60436;SDS011;46289;51.992;4.498;2023-04-03T07:36:06;5.75;;;2.83;;
60436;SDS011;46289;51.992;4.498;2023-04-03T07:39:04;7.22;;;3.00;;
60436;SDS011;46289;51.992;4.498;2023-04-03T07:45:13;6.72;;;2.67;;
60436;SDS011;46289;51.992;4.498;2023-04-03T07:48:04;8.85;;;3.60;;
60436;SDS011;46289;51.992;4.498;2023-04-03T07:50:32;6.55;;;3.15;;
60436;SDS011;46289;51.992;4.498;2023-04-03T07:53:16;5.88;;;2.40;;
60436;SDS011;46289;51.992;4.498;2023-04-03T07:56:16;7.95;;;2.97;;
60436;SDS011;46289;51.992;4.498;2023-04-03T07:59:59;6.18;;;2.90;;
60436;SDS011;46289;51.992;4.498;2023-04-03T08:03:06;8.13;;;3.40;;
60436;SDS011;46289;51.992;4.498;2023-04-03T08:06:09;6.95;;;2.75;;
60436;SDS011;46289;51.992;4.498;2023-04-03T08:08:53;4.72;;;2.80;;
60436;SDS011;46289;51.992;4.498;2023-04-03T08:11:48;6.93;;;2.83;;
60436;SDS011;46289;51.992;4.498;2023-04-03T08:14:53;8.00;;;2.83;;
60436;SDS011;46289;51.992;4.498;2023-04-03T08:23:42;8.27;;;2.75;;
60436;SDS011;46289;51.992;4.498;2023-04-03T08:26:32;7.57;;;2.92;;
60436;SDS011;46289;51.992;4.498;2023-04-03T08:29:37;5.95;;;3.28;;
60436;SDS011;46289;51.992;4.498;2023-04-03T08:32:37;6.53;;;2.65;;
60436;SDS011;46289;51.992;4.498;2023-04-03T08:38:53;5.88;;;2.78;;
60436;SDS011;46289;51.992;4.498;2023-04-03T08:45:33;7.85;;;2.92;;
60436;SDS011;46289;51.992;4.498;2023-04-03T08:48:46;4.70;;;2.20;;
60436;SDS011;46289;51.992;4.498;2023-04-03T08:52:14;5.82;;;2.58;;
60436;SDS011;46289;51.992;4.498;2023-04-03T08:55:25;8.60;;;2.90;;
60436;SDS011;46289;51.992;4.498;2023-04-03T08:58:04;7.07;;;2.58;;
60436;SDS011;46289;51.992;4.498;2023-04-03T09:01:00;6.00;;;2.20;;
60436;SDS011;46289;51.992;4.498;2023-04-03T09:03:59;4.55;;;2.10;;
60436;SDS011;46289;51.992;4.498;2023-04-03T09:07:13;2.75;;;1.83;;
60436;SDS011;46289;51.992;4.498;2023-04-03T09:09:30;4.97;;;2.40;;
60436;SDS011;46289;51.992;4.498;2023-04-03T09:11:40;3.75;;;2.00;;
60436;SDS011;46289;51.992;4.498;2023-04-03T09:13:59;4.30;;;2.20;;
60436;SDS011;46289;51.992;4.498;2023-04-03T09:16:12;3.40;;;1.77;;
60436;SDS011;46289;51.992;4.498;2023-04-03T09:18:25;4.90;;;2.22;;
60436;SDS011;46289;51.992;4.498;2023-04-03T09:20:39;3.90;;;1.90;;
60436;SDS011;46289;51.992;4.498;2023-04-03T09:22:50;1.77;;;1.55;;
60436;SDS011;46289;51.992;4.498;2023-04-03T09:24:57;3.92;;;1.98;;
60436;SDS011;46289;51.992;4.498;2023-04-03T09:27:06;7.00;;;1.92;;
60436;SDS011;46289;51.992;4.498;2023-04-03T09:29:19;2.42;;;1.58;;
60436;SDS011;46289;51.992;4.498;2023-04-03T09:31:27;2.65;;;1.67;;
60436;SDS011;46289;51.992;4.498;2023-04-03T09:33:35;1.52;;;1.42;;
60436;SDS011;46289;51.992;4.498;2023-04-03T09:35:40;1.92;;;1.40;;
60436;SDS011;46289;51.992;4.498;2023-04-03T09:37:49;4.65;;;2.03;;
60436;SDS011;46289;51.992;4.498;2023-04-03T09:39:55;3.85;;;1.70;;
60436;SDS011;46289;51.992;4.498;2023-04-03T09:42:01;4.30;;;1.70;;
60436;SDS011;46289;51.992;4.498;2023-04-03T09:44:24;1.73;;;1.35;;
60436;SDS011;46289;51.992;4.498;2023-04-03T09:46:32;1.23;;;1.13;;
60436;SDS011;46289;51.992;4.498;2023-04-03T09:48:41;1.40;;;1.30;;
60436;SDS011;46289;51.992;4.498;2023-04-03T09:51:08;2.05;;;1.30;;
60436;SDS011;46289;51.992;4.498;2023-04-03T09:53:25;1.90;;;1.58;;
60436;SDS011;46289;51.992;4.498;2023-04-03T09:55:32;2.90;;;1.52;;
60436;SDS011;46289;51.992;4.498;2023-04-03T09:57:46;1.63;;;1.30;;
60436;SDS011;46289;51.992;4.498;2023-04-03T09:59:59;1.38;;;1.27;;
60436;SDS011;46289;51.992;4.498;2023-04-03T10:02:17;2.88;;;1.40;;
60436;SDS011;46289;51.992;4.498;2023-04-03T10:04:36;1.55;;;1.30;;
60436;SDS011;46289;51.992;4.498;2023-04-03T10:06:43;2.38;;;1.52;;
60436;SDS011;46289;51.992;4.498;2023-04-03T10:08:57;4.47;;;1.85;;
60436;SDS011;46289;51.992;4.498;2023-04-03T10:11:07;2.60;;;1.23;;
60436;SDS011;46289;51.992;4.498;2023-04-03T10:13:17;2.20;;;1.40;;
60436;SDS011;46289;51.992;4.498;2023-04-03T10:15:26;4.47;;;2.00;;
60436;SDS011;46289;51.992;4.498;2023-04-03T10:17:36;2.70;;;1.50;;
60436;SDS011;46289;51.992;4.498;2023-04-03T10:19:51;4.65;;;1.80;;
60436;SDS011;46289;51.992;4.498;2023-04-03T10:21:59;2.90;;;1.50;;
60436;SDS011;46289;51.992;4.498;2023-04-03T10:24:10;1.50;;;1.40;;
60436;SDS011;46289;51.992;4.498;2023-04-03T10:26:21;2.28;;;1.45;;
60436;SDS011;46289;51.992;4.498;2023-04-03T10:28:39;2.85;;;1.75;;
60436;SDS011;46289;51.992;4.498;2023-04-03T10:31:00;3.30;;;1.67;;
60436;SDS011;46289;51.992;4.498;2023-04-03T10:33:31;1.58;;;1.48;;
60436;SDS011;46289;51.992;4.498;2023-04-03T10:35:54;4.13;;;1.63;;
60436;SDS011;46289;51.992;4.498;2023-04-03T10:38:15;2.67;;;1.20;;
60436;SDS011;46289;51.992;4.498;2023-04-03T10:40:30;4.35;;;1.52;;
60436;SDS011;46289;51.992;4.498;2023-04-03T10:42:41;2.78;;;1.65;;
60436;SDS011;46289;51.992;4.498;2023-04-03T10:44:58;2.25;;;1.50;;
60436;SDS011;46289;51.992;4.498;2023-04-03T10:47:16;3.13;;;1.20;;
60436;SDS011;46289;51.992;4.498;2023-04-03T10:49:28;1.40;;;1.30;;
60436;SDS011;46289;51.992;4.498;2023-04-03T10:51:58;1.45;;;1.23;;
60436;SDS011;46289;51.992;4.498;2023-04-03T10:54:11;2.20;;;1.30;;
60436;SDS011;46289;51.992;4.498;2023-04-03T10:56:21;1.33;;;1.08;;
60436;SDS011;46289;51.992;4.498;2023-04-03T10:58:36;1.77;;;1.25;;
60436;SDS011;46289;51.992;4.498;2023-04-03T11:00:45;1.30;;;1.20;;
60436;SDS011;46289;51.992;4.498;2023-04-03T11:02:56;4.50;;;1.40;;
60436;SDS011;46289;51.992;4.498;2023-04-03T11:05:04;5.43;;;1.48;;
60436;SDS011;46289;51.992;4.498;2023-04-03T11:07:13;3.10;;;1.48;;
60436;SDS011;46289;51.992;4.498;2023-04-03T11:09:24;2.83;;;1.15;;
60436;SDS011;46289;51.992;4.498;2023-04-03T11:11:33;1.58;;;1.20;;
60436;SDS011;46289;51.992;4.498;2023-04-03T11:13:41;2.63;;;1.30;;
60436;SDS011;46289;51.992;4.498;2023-04-03T11:15:51;2.80;;;1.30;;
60436;SDS011;46289;51.992;4.498;2023-04-03T11:18:00;1.35;;;1.00;;
60436;SDS011;46289;51.992;4.498;2023-04-03T11:20:14;1.38;;;1.00;;
60436;SDS011;46289;51.992;4.498;2023-04-03T11:22:23;2.60;;;1.52;;
60436;SDS011;46289;51.992;4.498;2023-04-03T11:24:32;2.67;;;1.45;;
60436;SDS011;46289;51.992;4.498;2023-04-03T11:26:38;3.22;;;1.30;;
60436;SDS011;46289;51.992;4.498;2023-04-03T11:28:52;2.83;;;1.30;;
60436;SDS011;46289;51.992;4.498;2023-04-03T11:30:59;2.83;;;1.00;;
60436;SDS011;46289;51.992;4.498;2023-04-03T11:33:17;1.40;;;1.17;;
60436;SDS011;46289;51.992;4.498;2023-04-03T11:35:36;2.30;;;1.25;;
60436;SDS011;46289;51.992;4.498;2023-04-03T11:37:45;1.23;;;1.00;;
60436;SDS011;46289;51.992;4.498;2023-04-03T11:39:56;2.90;;;1.15;;
60436;SDS011;46289;51.992;4.498;2023-04-03T11:42:13;1.53;;;1.10;;
60436;SDS011;46289;51.992;4.498;2023-04-03T11:44:27;3.13;;;1.15;;
60436;SDS011;46289;51.992;4.498;2023-04-03T11:46:54;1.10;;;1.02;;
60436;SDS011;46289;51.992;4.498;2023-04-03T11:49:03;1.33;;;1.27;;
60436;SDS011;46289;51.992;4.498;2023-04-03T11:53:51;1.45;;;0.90;;
60436;SDS011;46289;51.992;4.498;2023-04-03T11:55:57;1.05;;;0.90;;
60436;SDS011;46289;51.992;4.498;2023-04-03T11:58:04;1.27;;;0.90;;
60436;SDS011;46289;51.992;4.498;2023-04-03T12:05:41;3.28;;;1.10;;
60436;SDS011;46289;51.992;4.498;2023-04-03T12:07:52;2.38;;;1.10;;
60436;SDS011;46289;51.992;4.498;2023-04-03T12:10:20;0.90;;;0.90;;
60436;SDS011;46289;51.992;4.498;2023-04-03T12:12:34;0.90;;;0.85;;
60436;SDS011;46289;51.992;4.498;2023-04-03T12:14:42;0.90;;;0.90;;
60436;SDS011;46289;51.992;4.498;2023-04-03T12:16:47;2.05;;;1.10;;
60436;SDS011;46289;51.992;4.498;2023-04-03T12:18:55;2.45;;;1.05;;
60436;SDS011;46289;51.992;4.498;2023-04-03T12:21:09;1.67;;;1.00;;
60436;SDS011;46289;51.992;4.498;2023-04-03T12:23:28;4.50;;;1.27;;
60436;SDS011;46289;51.992;4.498;2023-04-03T12:25:43;2.10;;;1.08;;
60436;SDS011;46289;51.992;4.498;2023-04-03T12:27:53;2.58;;;1.08;;
60436;SDS011;46289;51.992;4.498;2023-04-03T12:30:04;1.13;;;1.02;;
60436;SDS011;46289;51.992;4.498;2023-04-03T12:32:19;1.27;;;1.13;;
60436;SDS011;46289;51.992;4.498;2023-04-03T12:34:39;1.08;;;1.00;;
60436;SDS011;46289;51.992;4.498;2023-04-03T12:36:58;2.17;;;0.98;;
60436;SDS011;46289;51.992;4.498;2023-04-03T12:39:25;2.88;;;1.10;;
60436;SDS011;46289;51.992;4.498;2023-04-03T12:41:51;1.08;;;1.00;;
60436;SDS011;46289;51.992;4.498;2023-04-03T12:46:46;1.08;;;0.95;;
60436;SDS011;46289;51.992;4.498;2023-04-03T12:48:54;1.25;;;1.15;;
60436;SDS011;46289;51.992;4.498;2023-04-03T12:51:01;2.70;;;1.25;;
60436;SDS011;46289;51.992;4.498;2023-04-03T12:53:14;1.23;;;1.13;;
60436;SDS011;46289;51.992;4.498;2023-04-03T12:55:22;3.65;;;1.55;;
60436;SDS011;46289;51.992;4.498;2023-04-03T12:57:27;2.88;;;1.52;;
60436;SDS011;46289;51.992;4.498;2023-04-03T12:59:34;2.67;;;1.27;;
60436;SDS011;46289;51.992;4.498;2023-04-03T13:01:40;2.78;;;1.40;;
60436;SDS011;46289;51.992;4.498;2023-04-03T13:03:48;2.22;;;1.33;;
60436;SDS011;46289;51.992;4.498;2023-04-03T13:05:57;1.75;;;1.38;;
60436;SDS011;46289;51.992;4.498;2023-04-03T13:08:05;1.88;;;1.23;;
60436;SDS011;46289;51.992;4.498;2023-04-03T13:10:21;2.35;;;1.42;;
60436;SDS011;46289;51.992;4.498;2023-04-03T13:12:26;1.80;;;1.13;;
60436;SDS011;46289;51.992;4.498;2023-04-03T13:14:32;2.20;;;1.75;;
60436;SDS011;46289;51.992;4.498;2023-04-03T13:16:38;2.65;;;1.40;;
60436;SDS011;46289;51.992;4.498;2023-04-03T13:18:43;3.00;;;1.40;;
60436;SDS011;46289;51.992;4.498;2023-04-03T13:20:57;4.82;;;1.90;;
60436;SDS011;46289;51.992;4.498;2023-04-03T13:23:07;2.22;;;1.27;;
60436;SDS011;46289;51.992;4.498;2023-04-03T13:25:16;2.97;;;1.50;;
60436;SDS011;46289;51.992;4.498;2023-04-03T13:27:26;1.58;;;1.38;;
60436;SDS011;46289;51.992;4.498;2023-04-03T13:29:35;3.17;;;1.70;;
60436;SDS011;46289;51.992;4.498;2023-04-03T13:31:41;2.33;;;1.33;;
60436;SDS011;46289;51.992;4.498;2023-04-03T13:33:52;3.65;;;1.85;;
60436;SDS011;46289;51.992;4.498;2023-04-03T13:38:22;3.10;;;1.60;;
60436;SDS011;46289;51.992;4.498;2023-04-03T13:40:28;3.25;;;1.88;;
60436;SDS011;46289;51.992;4.498;2023-04-03T13:42:58;2.50;;;1.45;;
60436;SDS011;46289;51.992;4.498;2023-04-03T13:45:24;3.03;;;1.52;;
60436;SDS011;46289;51.992;4.498;2023-04-03T13:48:07;2.72;;;1.63;;
60436;SDS011;46289;51.992;4.498;2023-04-03T13:50:25;4.65;;;1.45;;
60436;SDS011;46289;51.992;4.498;2023-04-03T13:52:34;3.08;;;1.52;;
60436;SDS011;46289;51.992;4.498;2023-04-03T13:54:51;2.88;;;1.75;;
60436;SDS011;46289;51.992;4.498;2023-04-03T13:57:00;2.28;;;1.92;;
60436;SDS011;46289;51.992;4.498;2023-04-03T13:59:19;3.25;;;1.60;;
60436;SDS011;46289;51.992;4.498;2023-04-03T14:01:32;3.03;;;1.40;;
60436;SDS011;46289;51.992;4.498;2023-04-03T14:03:43;4.88;;;1.65;;
60436;SDS011;46289;51.992;4.498;2023-04-03T14:05:51;2.65;;;1.50;;
60436;SDS011;46289;51.992;4.498;2023-04-03T14:07:56;2.22;;;1.60;;
60436;SDS011;46289;51.992;4.498;2023-04-03T14:10:04;2.30;;;1.50;;
60436;SDS011;46289;51.992;4.498;2023-04-03T14:12:12;2.60;;;1.42;;
60436;SDS011;46289;51.992;4.498;2023-04-03T14:14:35;5.32;;;1.67;;
60436;SDS011;46289;51.992;4.498;2023-04-03T14:16:42;3.30;;;1.70;;
60436;SDS011;46289;51.992;4.498;2023-04-03T14:18:49;3.10;;;1.42;;
60436;SDS011;46289;51.992;4.498;2023-04-03T14:20:56;3.05;;;1.58;;
60436;SDS011;46289;51.992;4.498;2023-04-03T14:23:01;2.55;;;1.50;;
60436;SDS011;46289;51.992;4.498;2023-04-03T14:25:08;2.95;;;1.55;;
60436;SDS011;46289;51.992;4.498;2023-04-03T14:27:15;4.55;;;1.90;;
60436;SDS011;46289;51.992;4.498;2023-04-03T14:29:22;3.47;;;1.70;;
60436;SDS011;46289;51.992;4.498;2023-04-03T14:31:30;3.50;;;1.60;;
60436;SDS011;46289;51.992;4.498;2023-04-03T14:33:38;3.70;;;1.67;;
60436;SDS011;46289;51.992;4.498;2023-04-03T14:35:44;3.28;;;1.98;;
60436;SDS011;46289;51.992;4.498;2023-04-03T14:37:49;5.07;;;1.60;;
60436;SDS011;46289;51.992;4.498;2023-04-03T14:39:56;2.63;;;1.38;;
60436;SDS011;46289;51.992;4.498;2023-04-03T14:42:05;3.30;;;1.80;;
60436;SDS011;46289;51.992;4.498;2023-04-03T14:44:17;2.55;;;1.50;;
60436;SDS011;46289;51.992;4.498;2023-04-03T14:46:25;2.97;;;1.55;;
60436;SDS011;46289;51.992;4.498;2023-04-03T14:48:56;2.88;;;1.85;;
60436;SDS011;46289;51.992;4.498;2023-04-03T14:51:00;2.97;;;1.70;;
60436;SDS011;46289;51.992;4.498;2023-04-03T14:53:06;4.35;;;1.92;;
60436;SDS011;46289;51.992;4.498;2023-04-03T14:55:43;2.65;;;1.33;;
60436;SDS011;46289;51.992;4.498;2023-04-03T14:57:58;4.80;;;1.90;;
60436;SDS011;46289;51.992;4.498;2023-04-03T15:00:11;2.63;;;1.60;;
60436;SDS011;46289;51.992;4.498;2023-04-03T15:02:28;3.00;;;1.37;;
60436;SDS011;46289;51.992;4.498;2023-04-03T15:04:39;2.60;;;1.55;;
60436;SDS011;46289;51.992;4.498;2023-04-03T15:06:47;4.13;;;2.05;;
60436;SDS011;46289;51.992;4.498;2023-04-03T15:08:52;4.65;;;2.35;;
60436;SDS011;46289;51.992;4.498;2023-04-03T15:10:59;2.85;;;1.70;;
60436;SDS011;46289;51.992;4.498;2023-04-03T15:13:10;4.47;;;1.67;;
60436;SDS011;46289;51.992;4.498;2023-04-03T15:15:17;3.95;;;1.80;;
60436;SDS011;46289;51.992;4.498;2023-04-03T15:17:25;4.22;;;1.60;;
60436;SDS011;46289;51.992;4.498;2023-04-03T15:19:32;1.92;;;1.63;;
60436;SDS011;46289;51.992;4.498;2023-04-03T15:21:43;4.65;;;1.88;;
60436;SDS011;46289;51.992;4.498;2023-04-03T15:23:48;5.22;;;2.25;;
60436;SDS011;46289;51.992;4.498;2023-04-03T15:25:58;4.28;;;1.77;;
60436;SDS011;46289;51.992;4.498;2023-04-03T15:28:03;1.83;;;1.50;;
60436;SDS011;46289;51.992;4.498;2023-04-03T15:32:23;3.58;;;1.85;;
60436;SDS011;46289;51.992;4.498;2023-04-03T15:34:30;2.80;;;1.80;;
60436;SDS011;46289;51.992;4.498;2023-04-03T15:36:37;2.67;;;1.63;;
60436;SDS011;46289;51.992;4.498;2023-04-03T15:38:47;5.28;;;2.60;;
60436;SDS011;46289;51.992;4.498;2023-04-03T15:40:52;2.70;;;1.80;;
60436;SDS011;46289;51.992;4.498;2023-04-03T15:42:58;5.35;;;2.20;;
60436;SDS011;46289;51.992;4.498;2023-04-03T15:45:03;5.82;;;1.90;;